Thunder radar more information blitzortung!


Radar de pluja more information rain snow radar


Visita la nostra xarxa de llocs de meteo:

Template documentation
and downloads

And another site



No particular awareness of the weather is required.    There are no Weather-warnings

Pagina Historial Weather Underground text

Diari Resum Juny 30, 2017 Unitats:  Tant    Imperial   Mètric
« Previous Dia
SegĂźent Dia »
Diari Setmana Mensual Anual Personalitzada
  Maxima: Minima: Media:
Temperatura: TemperatureC °F /  -17.8 °C 15.2 °F /  -9.3 °C 22.6 °F /  -5.2 °C
Punt de rosada: DewpointC °F /  -17.8 °C 3.7 °F /  -15.7 °C 5.9 °F /  -14.5 °C
Humitat: Humidity % 25 % 35 %
Wind Speed: WindSpeedKMH mph /  0 km/h - 8.4 mph /  13.5 km/h
RĂ fegues de vent: WindSpeedGustKMH mph /  0 km/h - -
Vent:- - SW
Pression baro: PressurehPa in /  0 hPa 1009.0 in /  34164.7 hPa -
Precipitacions: 0.0 in /  0 mm    
Historical Graphs
 
 
Dades de taula per Juny 30, 2017
Temps Temperatura Punt de rosada Pression baro Vent Wind Speed RĂ fegues de vent Humitat Rainfall Rate (Hourly)
TemperatureC °F /  -17.8 °C DewpointC °F /  -17.8 °C PressurehPa in /  0 hPa Calm     Humidity % HourlyPrecipMM in /  0 mm
00:02 19.7 °F /  -6.8 °C 8.7 °F /  -12.9 °C 1009.0 in /  34164.7 hPa ESE 5.6 mph /  9 km/h 5.6 mph /  9 km/h 49 % 0.0 in /  0 mm
00:05 16.4 °F /  -8.7 °C 6.5 °F /  -14.2 °C 1010.0 in /  34198.6 hPa NNE 1.6 mph /  2.6 km/h 4.8 mph /  7.7 km/h 52 % 0.0 in /  0 mm
00:07 19.6 °F /  -6.9 °C 8.6 °F /  -13 °C 1009.0 in /  34164.7 hPa ESE 11.9 mph /  19.2 km/h 11.9 mph /  19.2 km/h 49 % 0.0 in /  0 mm
00:12 19.2 °F /  -7.1 °C 8.2 °F /  -13.2 °C 1010.0 in /  34198.6 hPa ESE 7.4 mph /  11.9 km/h 7.4 mph /  11.9 km/h 49 % 0.0 in /  0 mm
00:15 16.5 °F /  -8.6 °C 6.6 °F /  -14.1 °C 1010.0 in /  34198.6 hPa NW 1.6 mph /  2.6 km/h 1.6 mph /  2.6 km/h 52 % 0.0 in /  0 mm
00:25 16.6 °F /  -8.6 °C 6.7 °F /  -14.1 °C 1010.0 in /  34198.6 hPa NNW 1.6 mph /  2.6 km/h 3.2 mph /  5.1 km/h 52 % 0.0 in /  0 mm
00:35 16.7 °F /  -8.5 °C 6.8 °F /  -14 °C 1010.0 in /  34198.6 hPa NNE 3.2 mph /  5.1 km/h 4.8 mph /  7.7 km/h 52 % 0.0 in /  0 mm
00:45 16.6 °F /  -8.6 °C 6.7 °F /  -14.1 °C 1010.0 in /  34198.6 hPa Calm   1.6 mph /  2.6 km/h 52 % 0.0 in /  0 mm
00:55 16.4 °F /  -8.7 °C 6.5 °F /  -14.2 °C 1010.0 in /  34198.6 hPa Calm     52 % 0.0 in /  0 mm
01:05 16.3 °F /  -8.7 °C 6.7 °F /  -14.1 °C 1010.0 in /  34198.6 hPa Calm   3.2 mph /  5.1 km/h 53 % 0.0 in /  0 mm
01:15 16.2 °F /  -8.8 °C 6.6 °F /  -14.1 °C 1010.0 in /  34198.6 hPa Calm   1.6 mph /  2.6 km/h 53 % 0.0 in /  0 mm
01:25 15.5 °F /  -9.2 °C 5.9 °F /  -14.5 °C 1010.7 in /  34222.3 hPa WSW 3.2 mph /  5.1 km/h 4.8 mph /  7.7 km/h 53 % 0.0 in /  0 mm
01:35 15.2 °F /  -9.3 °C 5.9 °F /  -14.5 °C 1010.7 in /  34222.3 hPa SW 1.6 mph /  2.6 km/h 3.2 mph /  5.1 km/h 54 % 0.0 in /  0 mm
01:45 15.3 °F /  -9.3 °C 6.1 °F /  -14.4 °C 1010.7 in /  34222.3 hPa SW 3.2 mph /  5.1 km/h 4.8 mph /  7.7 km/h 54 % 0.0 in /  0 mm
01:55 15.3 °F /  -9.3 °C 6.1 °F /  -14.4 °C 1010.7 in /  34222.3 hPa WSW 1.6 mph /  2.6 km/h 4.8 mph /  7.7 km/h 54 % 0.0 in /  0 mm
02:05 15.3 °F /  -9.3 °C 6.3 °F /  -14.3 °C 1010.7 in /  34222.3 hPa Calm   1.6 mph /  2.6 km/h 55 % 0.0 in /  0 mm
02:15 15.3 °F /  -9.3 °C 6.3 °F /  -14.3 °C 1010.7 in /  34222.3 hPa Calm     55 % 0.0 in /  0 mm
02:25 15.6 °F /  -9.1 °C 6.6 °F /  -14.1 °C 1010.7 in /  34222.3 hPa WSW 1.6 mph /  2.6 km/h 3.2 mph /  5.1 km/h 55 % 0.0 in /  0 mm
02:35 16.0 °F /  -8.9 °C 6.9 °F /  -13.9 °C 1011.7 in /  34256.2 hPa WSW 3.2 mph /  5.1 km/h 3.2 mph /  5.1 km/h 55 % 0.0 in /  0 mm
02:45 16.7 °F /  -8.5 °C 7.6 °F /  -13.6 °C 1011.7 in /  34256.2 hPa Calm   3.2 mph /  5.1 km/h 55 % 0.0 in /  0 mm
02:55 17.5 °F /  -8.1 °C 8.1 °F /  -13.3 °C 1011.7 in /  34256.2 hPa SW 1.6 mph /  2.6 km/h 3.2 mph /  5.1 km/h 54 % 0.0 in /  0 mm
03:05 17.6 °F /  -8 °C 8.2 °F /  -13.2 °C 1011.7 in /  34256.2 hPa South 1.6 mph /  2.6 km/h 3.2 mph /  5.1 km/h 54 % 0.0 in /  0 mm
03:15 18.2 °F /  -7.7 °C 8.4 °F /  -13.1 °C 1011.7 in /  34256.2 hPa SSE 3.2 mph /  5.1 km/h 3.2 mph /  5.1 km/h 53 % 0.0 in /  0 mm
03:25 18.5 °F /  -7.5 °C 8.7 °F /  -12.9 °C 1011.7 in /  34256.2 hPa Calm   3.2 mph /  5.1 km/h 53 % 0.0 in /  0 mm
03:35 18.2 °F /  -7.7 °C 8.4 °F /  -13.1 °C 1010.7 in /  34222.3 hPa SW 1.6 mph /  2.6 km/h 4.8 mph /  7.7 km/h 53 % 0.0 in /  0 mm
03:45 18.5 °F /  -7.5 °C 8.4 °F /  -13.1 °C 1010.7 in /  34222.3 hPa SW 3.2 mph /  5.1 km/h 4.8 mph /  7.7 km/h 52 % 0.0 in /  0 mm
03:55 19.2 °F /  -7.1 °C 8.8 °F /  -12.9 °C 1011.7 in /  34256.2 hPa Calm   3.2 mph /  5.1 km/h 51 % 0.0 in /  0 mm
04:05 19.9 °F /  -6.7 °C 9.4 °F /  -12.6 °C 1011.7 in /  34256.2 hPa NNW 1.6 mph /  2.6 km/h 4.8 mph /  7.7 km/h 51 % 0.0 in /  0 mm
04:15 20.6 °F /  -6.3 °C 9.8 °F /  -12.3 °C 1011.7 in /  34256.2 hPa ENE 1.6 mph /  2.6 km/h 4.8 mph /  7.7 km/h 50 % 0.0 in /  0 mm
04:25 20.7 °F /  -6.3 °C 9.6 °F /  -12.4 °C 1011.7 in /  34256.2 hPa East 4.8 mph /  7.7 km/h 6.4 mph /  10.3 km/h 49 % 0.0 in /  0 mm
04:35 21.2 °F /  -6 °C 9.7 °F /  -12.4 °C 1011.7 in /  34256.2 hPa ENE 3.2 mph /  5.1 km/h 3.2 mph /  5.1 km/h 48 % 0.0 in /  0 mm
04:45 21.2 °F /  -6 °C 9.1 °F /  -12.7 °C 1011.7 in /  34256.2 hPa SW 4.8 mph /  7.7 km/h 6.4 mph /  10.3 km/h 46 % 0.0 in /  0 mm
09:48 21.4 °F /  -5.9 °C 8.6 °F /  -13 °C 1012.8 in /  34293.4 hPa WSW 3.7 mph /  6 km/h 4.2 mph /  6.8 km/h 44 % 0.0 in /  0 mm
09:53 21.2 °F /  -6 °C 8.1 °F /  -13.3 °C 1012.8 in /  34293.4 hPa WNW 9.3 mph /  15 km/h 9.3 mph /  15 km/h 43 % 0.0 in /  0 mm
09:58 21.7 °F /  -5.7 °C 8.6 °F /  -13 °C 1012.8 in /  34293.4 hPa West 4.2 mph /  6.8 km/h 4.2 mph /  6.8 km/h 43 % 0.0 in /  0 mm
10:03 21.7 °F /  -5.7 °C 8.2 °F /  -13.2 °C 1012.8 in /  34293.4 hPa WSW 9.3 mph /  15 km/h 9.3 mph /  15 km/h 42 % 0.0 in /  0 mm
10:08 22.1 °F /  -5.5 °C 8.6 °F /  -13 °C 1012.8 in /  34293.4 hPa WSW 3.9 mph /  6.3 km/h 3.9 mph /  6.3 km/h 42 % 0.0 in /  0 mm
10:13 21.8 °F /  -5.7 °C 8.3 °F /  -13.2 °C 1011.7 in /  34256.2 hPa SSW 9.3 mph /  15 km/h 9.3 mph /  15 km/h 42 % 0.0 in /  0 mm
10:18 22.5 °F /  -5.3 °C 8.9 °F /  -12.8 °C 1011.7 in /  34256.2 hPa WSW 5.6 mph /  9 km/h 5.6 mph /  9 km/h 42 % 0.0 in /  0 mm
10:23 22.3 °F /  -5.4 °C 8.4 °F /  -13.1 °C 1011.7 in /  34256.2 hPa WNW 11.1 mph /  17.9 km/h 11.1 mph /  17.9 km/h 41 % 0.0 in /  0 mm
10:28 22.2 °F /  -5.4 °C 7.9 °F /  -13.4 °C 1011.7 in /  34256.2 hPa West 9.3 mph /  15 km/h 9.3 mph /  15 km/h 40 % 0.0 in /  0 mm
10:33 22.0 °F /  -5.6 °C 7.4 °F /  -13.7 °C 1011.7 in /  34256.2 hPa NW 14.8 mph /  23.8 km/h 14.8 mph /  23.8 km/h 39 % 0.0 in /  0 mm
10:38 22.4 °F /  -5.3 °C 7.8 °F /  -13.4 °C 1011.7 in /  34256.2 hPa West 13.0 mph /  20.9 km/h 13.0 mph /  20.9 km/h 39 % 0.0 in /  0 mm
10:43 22.3 °F /  -5.4 °C 7.3 °F /  -13.7 °C 1012.8 in /  34293.4 hPa SW 7.4 mph /  11.9 km/h 9.5 mph /  15.3 km/h 38 % 0.0 in /  0 mm
10:48 22.2 °F /  -5.4 °C 7.2 °F /  -13.8 °C 1012.8 in /  34293.4 hPa WSW 13.0 mph /  20.9 km/h 13.0 mph /  20.9 km/h 38 % 0.0 in /  0 mm
10:53 22.4 °F /  -5.3 °C 7.4 °F /  -13.7 °C 1012.8 in /  34293.4 hPa West 13.0 mph /  20.9 km/h 13.0 mph /  20.9 km/h 38 % 0.0 in /  0 mm
10:58 22.4 °F /  -5.3 °C 7.0 °F /  -13.9 °C 1011.7 in /  34256.2 hPa WNW 11.1 mph /  17.9 km/h 11.1 mph /  17.9 km/h 37 % 0.0 in /  0 mm
11:03 22.7 °F /  -5.2 °C 7.3 °F /  -13.7 °C 1011.7 in /  34256.2 hPa WNW 7.6 mph /  12.2 km/h 7.6 mph /  12.2 km/h 37 % 0.0 in /  0 mm
11:08 23.1 °F /  -4.9 °C 7.2 °F /  -13.8 °C 1011.7 in /  34256.2 hPa WSW 5.6 mph /  9 km/h 5.6 mph /  9 km/h 36 % 0.0 in /  0 mm
11:13 23.1 °F /  -4.9 °C 7.2 °F /  -13.8 °C 1011.7 in /  34256.2 hPa SW 11.1 mph /  17.9 km/h 11.1 mph /  17.9 km/h 36 % 0.0 in /  0 mm
11:18 23.5 °F /  -4.7 °C 7.6 °F /  -13.6 °C 1011.7 in /  34256.2 hPa West 14.0 mph /  22.5 km/h 14.0 mph /  22.5 km/h 36 % 0.0 in /  0 mm
11:23 23.5 °F /  -4.7 °C 7.2 °F /  -13.8 °C 1011.7 in /  34256.2 hPa SW 13.0 mph /  20.9 km/h 13.0 mph /  20.9 km/h 35 % 0.0 in /  0 mm
11:28 23.7 °F /  -4.6 °C 7.3 °F /  -13.7 °C 1011.7 in /  34256.2 hPa NE 11.1 mph /  17.9 km/h 11.1 mph /  17.9 km/h 35 % 0.0 in /  0 mm
11:33 24.1 °F /  -4.4 °C 7.7 °F /  -13.5 °C 1011.7 in /  34256.2 hPa NW 5.6 mph /  9 km/h 5.6 mph /  9 km/h 35 % 0.0 in /  0 mm
11:38 24.0 °F /  -4.4 °C 7.6 °F /  -13.6 °C 1011.7 in /  34256.2 hPa WSW 13.0 mph /  20.9 km/h 13.0 mph /  20.9 km/h 35 % 0.0 in /  0 mm
11:43 23.9 °F /  -4.5 °C 7.1 °F /  -13.8 °C 1011.7 in /  34256.2 hPa WNW 13.0 mph /  20.9 km/h 13.0 mph /  20.9 km/h 34 % 0.0 in /  0 mm
11:48 24.1 °F /  -4.4 °C 7.3 °F /  -13.7 °C 1011.7 in /  34256.2 hPa West 7.4 mph /  11.9 km/h 7.4 mph /  11.9 km/h 34 % 0.0 in /  0 mm
11:53 23.9 °F /  -4.5 °C 6.7 °F /  -14.1 °C 1011.7 in /  34256.2 hPa SW 9.3 mph /  15 km/h 9.3 mph /  15 km/h 33 % 0.0 in /  0 mm
11:58 24.3 °F /  -4.3 °C 7.4 °F /  -13.7 °C 1011.7 in /  34256.2 hPa WSW 7.4 mph /  11.9 km/h 7.4 mph /  11.9 km/h 34 % 0.0 in /  0 mm
12:03 24.9 °F /  -3.9 °C 7.9 °F /  -13.4 °C 1011.7 in /  34256.2 hPa SSW 7.4 mph /  11.9 km/h 7.4 mph /  11.9 km/h 34 % 0.0 in /  0 mm
12:08 24.7 °F /  -4.1 °C 7.8 °F /  -13.4 °C 1011.7 in /  34256.2 hPa South 9.3 mph /  15 km/h 9.3 mph /  15 km/h 34 % 0.0 in /  0 mm
12:13 24.9 °F /  -3.9 °C 7.1 °F /  -13.8 °C 1011.7 in /  34256.2 hPa WSW 9.3 mph /  15 km/h 9.3 mph /  15 km/h 32 % 0.0 in /  0 mm
12:18 25.0 °F /  -3.9 °C 7.2 °F /  -13.8 °C 1011.7 in /  34256.2 hPa West 5.6 mph /  9 km/h 5.6 mph /  9 km/h 32 % 0.0 in /  0 mm
12:23 25.3 °F /  -3.7 °C 7.4 °F /  -13.7 °C 1011.7 in /  34256.2 hPa NE 10.0 mph /  16.1 km/h 10.0 mph /  16.1 km/h 32 % 0.0 in /  0 mm
12:28 25.1 °F /  -3.8 °C 6.8 °F /  -14 °C 1011.7 in /  34256.2 hPa SW 11.1 mph /  17.9 km/h 11.1 mph /  17.9 km/h 31 % 0.0 in /  0 mm
12:33 25.1 °F /  -3.8 °C 6.8 °F /  -14 °C 1011.7 in /  34256.2 hPa NNE 5.6 mph /  9 km/h 5.6 mph /  9 km/h 31 % 0.0 in /  0 mm
12:38 25.7 °F /  -3.5 °C 7.3 °F /  -13.7 °C 1011.7 in /  34256.2 hPa West 8.7 mph /  14 km/h 8.7 mph /  14 km/h 31 % 0.0 in /  0 mm
12:43 25.1 °F /  -3.8 °C 6.3 °F /  -14.3 °C 1011.7 in /  34256.2 hPa NW 16.7 mph /  26.9 km/h 16.7 mph /  26.9 km/h 30 % 0.0 in /  0 mm
12:48 25.3 °F /  -3.7 °C 6.0 °F /  -14.4 °C 1011.7 in /  34256.2 hPa WSW 7.4 mph /  11.9 km/h 7.4 mph /  11.9 km/h 29 % 0.0 in /  0 mm
12:53 25.4 °F /  -3.7 °C 6.6 °F /  -14.1 °C 1011.7 in /  34256.2 hPa SW 12.2 mph /  19.6 km/h 12.2 mph /  19.6 km/h 30 % 0.0 in /  0 mm
12:58 25.2 °F /  -3.8 °C 6.4 °F /  -14.2 °C 1011.7 in /  34256.2 hPa ENE 11.1 mph /  17.9 km/h 11.1 mph /  17.9 km/h 30 % 0.0 in /  0 mm
13:03 25.0 °F /  -3.9 °C 5.7 °F /  -14.6 °C 1011.7 in /  34256.2 hPa West 12.2 mph /  19.6 km/h 12.2 mph /  19.6 km/h 29 % 0.0 in /  0 mm
13:08 24.9 °F /  -3.9 °C 6.1 °F /  -14.4 °C 1011.7 in /  34256.2 hPa WSW 5.6 mph /  9 km/h 5.6 mph /  9 km/h 30 % 0.0 in /  0 mm
13:13 25.6 °F /  -3.6 °C 6.2 °F /  -14.3 °C 1011.7 in /  34256.2 hPa SW 9.3 mph /  15 km/h 9.3 mph /  15 km/h 29 % 0.0 in /  0 mm
13:18 25.9 °F /  -3.4 °C 6.5 °F /  -14.2 °C 1011.7 in /  34256.2 hPa West 16.7 mph /  26.9 km/h 16.7 mph /  26.9 km/h 29 % 0.0 in /  0 mm
13:23 25.8 °F /  -3.4 °C 6.4 °F /  -14.2 °C 1011.7 in /  34256.2 hPa West 9.7 mph /  15.6 km/h 9.7 mph /  15.6 km/h 29 % 0.0 in /  0 mm
13:28 25.7 °F /  -3.5 °C 6.3 °F /  -14.3 °C 1011.7 in /  34256.2 hPa WSW 13.0 mph /  20.9 km/h 13.0 mph /  20.9 km/h 29 % 0.0 in /  0 mm
13:33 25.7 °F /  -3.5 °C 5.8 °F /  -14.6 °C 1011.7 in /  34256.2 hPa WSW 11.1 mph /  17.9 km/h 11.1 mph /  17.9 km/h 28 % 0.0 in /  0 mm
13:38 26.0 °F /  -3.3 °C 6.1 °F /  -14.4 °C 1011.7 in /  34256.2 hPa WSW 11.1 mph /  17.9 km/h 11.1 mph /  17.9 km/h 28 % 0.0 in /  0 mm
13:43 25.7 °F /  -3.5 °C 5.8 °F /  -14.6 °C 1011.7 in /  34256.2 hPa SW 11.1 mph /  17.9 km/h 11.1 mph /  17.9 km/h 28 % 0.0 in /  0 mm
13:48 25.8 °F /  -3.4 °C 5.9 °F /  -14.5 °C 1011.7 in /  34256.2 hPa NW 11.9 mph /  19.2 km/h 11.9 mph /  19.2 km/h 28 % 0.0 in /  0 mm
13:53 25.5 °F /  -3.6 °C 5.7 °F /  -14.6 °C 1011.7 in /  34256.2 hPa SW 14.8 mph /  23.8 km/h 14.8 mph /  23.8 km/h 28 % 0.0 in /  0 mm
13:58 25.8 °F /  -3.4 °C 5.9 °F /  -14.5 °C 1011.7 in /  34256.2 hPa SW 14.8 mph /  23.8 km/h 14.8 mph /  23.8 km/h 28 % 0.0 in /  0 mm
14:00 26.0 °F /  -3.3 °C 6.1 °F /  -14.4 °C 1011.7 in /  34256.2 hPa WNW 16.7 mph /  26.9 km/h 16.7 mph /  26.9 km/h 28 % 0.0 in /  0 mm
14:05 26.0 °F /  -3.3 °C 6.1 °F /  -14.4 °C 1011.7 in /  34256.2 hPa West 18.5 mph /  29.8 km/h 18.5 mph /  29.8 km/h 28 % 0.0 in /  0 mm
14:10 25.8 °F /  -3.4 °C 5.4 °F /  -14.8 °C 1011.7 in /  34256.2 hPa SW 14.8 mph /  23.8 km/h 14.8 mph /  23.8 km/h 27 % 0.0 in /  0 mm
14:15 26.2 °F /  -3.2 °C 6.2 °F /  -14.3 °C 1010.7 in /  34222.3 hPa WNW 5.8 mph /  9.3 km/h 5.8 mph /  9.3 km/h 28 % 0.0 in /  0 mm
14:20 26.5 °F /  -3.1 °C 6.0 °F /  -14.4 °C 1010.7 in /  34222.3 hPa West 12.2 mph /  19.6 km/h 12.2 mph /  19.6 km/h 27 % 0.0 in /  0 mm
14:25 26.3 °F /  -3.2 °C 5.8 °F /  -14.6 °C 1010.7 in /  34222.3 hPa West 14.5 mph /  23.3 km/h 14.5 mph /  23.3 km/h 27 % 0.0 in /  0 mm
14:30 26.2 °F /  -3.2 °C 5.7 °F /  -14.6 °C 1011.7 in /  34256.2 hPa West 9.3 mph /  15 km/h 9.3 mph /  15 km/h 27 % 0.0 in /  0 mm
14:35 26.3 °F /  -3.2 °C 5.8 °F /  -14.6 °C 1011.7 in /  34256.2 hPa West 14.8 mph /  23.8 km/h 14.8 mph /  23.8 km/h 27 % 0.0 in /  0 mm
14:40 26.5 °F /  -3.1 °C 5.4 °F /  -14.8 °C 1011.7 in /  34256.2 hPa West 9.3 mph /  15 km/h 9.3 mph /  15 km/h 26 % 0.0 in /  0 mm
14:45 26.6 °F /  -3 °C 6.1 °F /  -14.4 °C 1011.7 in /  34256.2 hPa SE 9.3 mph /  15 km/h 9.3 mph /  15 km/h 27 % 0.0 in /  0 mm
14:50 26.0 °F /  -3.3 °C 5.0 °F /  -15 °C 1011.7 in /  34256.2 hPa West 18.5 mph /  29.8 km/h 18.5 mph /  29.8 km/h 26 % 0.0 in /  0 mm
14:55 26.1 °F /  -3.3 °C 5.1 °F /  -14.9 °C 1011.7 in /  34256.2 hPa WSW 9.3 mph /  15 km/h 9.5 mph /  15.3 km/h 26 % 0.0 in /  0 mm
15:00 26.0 °F /  -3.3 °C 5.0 °F /  -15 °C 1011.7 in /  34256.2 hPa ENE 18.5 mph /  29.8 km/h 18.5 mph /  29.8 km/h 26 % 0.0 in /  0 mm
15:05 26.3 °F /  -3.2 °C 5.3 °F /  -14.8 °C 1011.7 in /  34256.2 hPa WNW 20.4 mph /  32.8 km/h 20.4 mph /  32.8 km/h 26 % 0.0 in /  0 mm
15:10 26.5 °F /  -3.1 °C 5.4 °F /  -14.8 °C 1011.7 in /  34256.2 hPa West 11.1 mph /  17.9 km/h 11.1 mph /  17.9 km/h 26 % 0.0 in /  0 mm
15:15 26.1 °F /  -3.3 °C 5.1 °F /  -14.9 °C 1011.7 in /  34256.2 hPa SW 27.8 mph /  44.7 km/h 27.8 mph /  44.7 km/h 26 % 0.0 in /  0 mm
15:20 26.6 °F /  -3 °C 5.5 °F /  -14.7 °C 1011.7 in /  34256.2 hPa SW 16.7 mph /  26.9 km/h 16.7 mph /  26.9 km/h 26 % 0.0 in /  0 mm
15:25 26.8 °F /  -2.9 °C 5.7 °F /  -14.6 °C 1011.7 in /  34256.2 hPa WSW 13.0 mph /  20.9 km/h 13.0 mph /  20.9 km/h 26 % 0.0 in /  0 mm
15:30 27.1 °F /  -2.7 °C 5.9 °F /  -14.5 °C 1011.7 in /  34256.2 hPa SSW 16.7 mph /  26.9 km/h 16.7 mph /  26.9 km/h 26 % 0.0 in /  0 mm
15:35 26.8 °F /  -2.9 °C 5.7 °F /  -14.6 °C 1011.7 in /  34256.2 hPa WSW 13.0 mph /  20.9 km/h 13.0 mph /  20.9 km/h 26 % 0.0 in /  0 mm
15:40 26.9 °F /  -2.8 °C 5.2 °F /  -14.9 °C 1011.7 in /  34256.2 hPa WSW 16.7 mph /  26.9 km/h 16.7 mph /  26.9 km/h 25 % 0.0 in /  0 mm
15:45 27.1 °F /  -2.7 °C 5.9 °F /  -14.5 °C 1011.7 in /  34256.2 hPa WSW 9.7 mph /  15.6 km/h 9.7 mph /  15.6 km/h 26 % 0.0 in /  0 mm
15:50 26.9 °F /  -2.8 °C 5.2 °F /  -14.9 °C 1011.7 in /  34256.2 hPa West 14.8 mph /  23.8 km/h 14.8 mph /  23.8 km/h 25 % 0.0 in /  0 mm
15:55 27.1 °F /  -2.7 °C 5.4 °F /  -14.8 °C 1011.7 in /  34256.2 hPa NW 9.3 mph /  15 km/h 9.3 mph /  15 km/h 25 % 0.0 in /  0 mm
16:00 26.7 °F /  -2.9 °C 5.1 °F /  -14.9 °C 1011.7 in /  34256.2 hPa NNW 18.5 mph /  29.8 km/h 18.5 mph /  29.8 km/h 25 % 0.0 in /  0 mm
16:05 27.1 °F /  -2.7 °C 5.4 °F /  -14.8 °C 1011.7 in /  34256.2 hPa WSW 9.3 mph /  15 km/h 9.3 mph /  15 km/h 25 % 0.0 in /  0 mm
16:10 27.4 °F /  -2.6 °C 6.2 °F /  -14.3 °C 1011.7 in /  34256.2 hPa West 9.7 mph /  15.6 km/h 9.7 mph /  15.6 km/h 26 % 0.0 in /  0 mm
16:15 27.3 °F /  -2.6 °C 5.6 °F /  -14.7 °C 1011.7 in /  34256.2 hPa NW 13.0 mph /  20.9 km/h 13.0 mph /  20.9 km/h 25 % 0.0 in /  0 mm
16:20 26.9 °F /  -2.8 °C 5.2 °F /  -14.9 °C 1011.7 in /  34256.2 hPa NNW 9.3 mph /  15 km/h 9.3 mph /  15 km/h 25 % 0.0 in /  0 mm
16:25 26.5 °F /  -3.1 °C 4.9 °F /  -15.1 °C 1011.7 in /  34256.2 hPa West 9.3 mph /  15 km/h 9.3 mph /  15 km/h 25 % 0.0 in /  0 mm
16:30 27.0 °F /  -2.8 °C 5.3 °F /  -14.8 °C 1010.7 in /  34222.3 hPa West 11.1 mph /  17.9 km/h 11.1 mph /  17.9 km/h 25 % 0.0 in /  0 mm
16:35 27.0 °F /  -2.8 °C 5.3 °F /  -14.8 °C 1010.7 in /  34222.3 hPa SW 14.8 mph /  23.8 km/h 14.8 mph /  23.8 km/h 25 % 0.0 in /  0 mm
16:40 27.3 °F /  -2.6 °C 6.1 °F /  -14.4 °C 1010.7 in /  34222.3 hPa ENE 9.3 mph /  15 km/h 9.3 mph /  15 km/h 26 % 0.0 in /  0 mm
16:45 27.4 °F /  -2.6 °C 6.2 °F /  -14.3 °C 1010.7 in /  34222.3 hPa WSW 9.3 mph /  15 km/h 9.3 mph /  15 km/h 26 % 0.0 in /  0 mm
16:50 27.6 °F /  -2.4 °C 6.4 °F /  -14.2 °C 1010.7 in /  34222.3 hPa SW 16.7 mph /  26.9 km/h 16.7 mph /  26.9 km/h 26 % 0.0 in /  0 mm
16:55 27.0 °F /  -2.8 °C 5.8 °F /  -14.6 °C 1010.7 in /  34222.3 hPa SW 16.7 mph /  26.9 km/h 16.7 mph /  26.9 km/h 26 % 0.0 in /  0 mm
17:00 27.3 °F /  -2.6 °C 6.1 °F /  -14.4 °C 1010.7 in /  34222.3 hPa SW 9.5 mph /  15.3 km/h 9.5 mph /  15.3 km/h 26 % 0.0 in /  0 mm
17:05 27.1 °F /  -2.7 °C 5.9 °F /  -14.5 °C 1010.7 in /  34222.3 hPa West 16.7 mph /  26.9 km/h 16.7 mph /  26.9 km/h 26 % 0.0 in /  0 mm
17:06 27.1 °F /  -2.7 °C 5.9 °F /  -14.5 °C 1010.7 in /  34222.3 hPa WSW 8.7 mph /  14 km/h 8.7 mph /  14 km/h 26 % 0.0 in /  0 mm
17:11 27.3 °F /  -2.6 °C 6.1 °F /  -14.4 °C 1010.7 in /  34222.3 hPa SW 18.5 mph /  29.8 km/h 18.5 mph /  29.8 km/h 26 % 0.0 in /  0 mm
17:16 27.3 °F /  -2.6 °C 6.1 °F /  -14.4 °C 1010.7 in /  34222.3 hPa NW 9.3 mph /  15 km/h 9.3 mph /  15 km/h 26 % 0.0 in /  0 mm
17:21 27.2 °F /  -2.7 °C 6.0 °F /  -14.4 °C 1010.7 in /  34222.3 hPa West 11.1 mph /  17.9 km/h 11.1 mph /  17.9 km/h 26 % 0.0 in /  0 mm
17:26 27.2 °F /  -2.7 °C 6.0 °F /  -14.4 °C 1010.0 in /  34198.6 hPa SSE 14.8 mph /  23.8 km/h 14.8 mph /  23.8 km/h 26 % 0.0 in /  0 mm
17:31 27.5 °F /  -2.5 °C 6.3 °F /  -14.3 °C 1010.0 in /  34198.6 hPa WSW 12.6 mph /  20.3 km/h 12.6 mph /  20.3 km/h 26 % 0.0 in /  0 mm
17:36 27.0 °F /  -2.8 °C 5.8 °F /  -14.6 °C 1010.0 in /  34198.6 hPa SSW 14.8 mph /  23.8 km/h 14.8 mph /  23.8 km/h 26 % 0.0 in /  0 mm
17:41 26.9 °F /  -2.8 °C 5.8 °F /  -14.6 °C 1010.7 in /  34222.3 hPa West 11.1 mph /  17.9 km/h 11.1 mph /  17.9 km/h 26 % 0.0 in /  0 mm
17:46 26.6 °F /  -3 °C 5.5 °F /  -14.7 °C 1010.7 in /  34222.3 hPa SSW 14.8 mph /  23.8 km/h 14.8 mph /  23.8 km/h 26 % 0.0 in /  0 mm
17:51 26.6 °F /  -3 °C 5.5 °F /  -14.7 °C 1010.7 in /  34222.3 hPa WSW 11.1 mph /  17.9 km/h 11.1 mph /  17.9 km/h 26 % 0.0 in /  0 mm
17:56 27.0 °F /  -2.8 °C 5.8 °F /  -14.6 °C 1010.7 in /  34222.3 hPa South 11.1 mph /  17.9 km/h 11.1 mph /  17.9 km/h 26 % 0.0 in /  0 mm
18:01 26.7 °F /  -2.9 °C 5.6 °F /  -14.7 °C 1010.7 in /  34222.3 hPa WSW 13.0 mph /  20.9 km/h 13.0 mph /  20.9 km/h 26 % 0.0 in /  0 mm
18:06 27.1 °F /  -2.7 °C 5.9 °F /  -14.5 °C 1010.7 in /  34222.3 hPa West 9.3 mph /  15 km/h 9.3 mph /  15 km/h 26 % 0.0 in /  0 mm
18:11 26.5 °F /  -3.1 °C 5.4 °F /  -14.8 °C 1010.7 in /  34222.3 hPa WSW 20.4 mph /  32.8 km/h 20.4 mph /  32.8 km/h 26 % 0.0 in /  0 mm
18:16 25.9 °F /  -3.4 °C 4.9 °F /  -15.1 °C 1010.7 in /  34222.3 hPa WSW 20.4 mph /  32.8 km/h 20.4 mph /  32.8 km/h 26 % 0.0 in /  0 mm
18:21 26.4 °F /  -3.1 °C 5.3 °F /  -14.8 °C 1010.7 in /  34222.3 hPa WNW 12.2 mph /  19.6 km/h 12.2 mph /  19.6 km/h 26 % 0.0 in /  0 mm
18:26 26.0 °F /  -3.3 °C 5.0 °F /  -15 °C 1010.7 in /  34222.3 hPa SSW 16.7 mph /  26.9 km/h 16.7 mph /  26.9 km/h 26 % 0.0 in /  0 mm
18:31 25.9 °F /  -3.4 °C 4.9 °F /  -15.1 °C 1010.7 in /  34222.3 hPa West 24.1 mph /  38.8 km/h 24.1 mph /  38.8 km/h 26 % 0.0 in /  0 mm
18:36 25.6 °F /  -3.6 °C 4.7 °F /  -15.2 °C 1010.7 in /  34222.3 hPa WNW 20.4 mph /  32.8 km/h 20.4 mph /  32.8 km/h 26 % 0.0 in /  0 mm
18:41 25.8 °F /  -3.4 °C 4.8 °F /  -15.1 °C 1011.7 in /  34256.2 hPa SW 9.3 mph /  15 km/h 9.5 mph /  15.3 km/h 26 % 0.0 in /  0 mm
18:46 25.7 °F /  -3.5 °C 4.7 °F /  -15.2 °C 1011.7 in /  34256.2 hPa South 18.5 mph /  29.8 km/h 18.5 mph /  29.8 km/h 26 % 0.0 in /  0 mm
18:51 25.4 °F /  -3.7 °C 4.5 °F /  -15.3 °C 1011.7 in /  34256.2 hPa SE 14.8 mph /  23.8 km/h 14.8 mph /  23.8 km/h 26 % 0.0 in /  0 mm
18:56 25.3 °F /  -3.7 °C 4.4 °F /  -15.3 °C 1010.7 in /  34222.3 hPa SW 11.1 mph /  17.9 km/h 11.1 mph /  17.9 km/h 26 % 0.0 in /  0 mm
19:01 25.1 °F /  -3.8 °C 4.2 °F /  -15.4 °C 1010.7 in /  34222.3 hPa WSW 14.8 mph /  23.8 km/h 14.8 mph /  23.8 km/h 26 % 0.0 in /  0 mm
19:06 25.1 °F /  -3.8 °C 4.8 °F /  -15.1 °C 1010.7 in /  34222.3 hPa SW 9.3 mph /  15 km/h 9.3 mph /  15 km/h 27 % 0.0 in /  0 mm
19:11 25.2 °F /  -3.8 °C 4.9 °F /  -15.1 °C 1010.7 in /  34222.3 hPa NW 7.4 mph /  11.9 km/h 7.4 mph /  11.9 km/h 27 % 0.0 in /  0 mm
19:12 25.2 °F /  -3.8 °C 4.9 °F /  -15.1 °C 1010.7 in /  34222.3 hPa WSW 9.3 mph /  15 km/h 9.3 mph /  15 km/h 27 % 0.0 in /  0 mm
19:15 19.1 °F /  -7.2 °C 5.9 °F /  -14.5 °C 1015.8 in /  34395 hPa NE 4.8 mph /  7.7 km/h 9.7 mph /  15.6 km/h 42 % 0.0 in /  0 mm
19:17 25.3 °F /  -3.7 °C 4.9 °F /  -15.1 °C 1010.7 in /  34222.3 hPa SW 9.3 mph /  15 km/h 9.3 mph /  15 km/h 27 % 0.0 in /  0 mm
19:22 25.2 °F /  -3.8 °C 4.9 °F /  -15.1 °C 1010.7 in /  34222.3 hPa WSW 7.4 mph /  11.9 km/h 7.4 mph /  11.9 km/h 27 % 0.0 in /  0 mm
19:23 25.2 °F /  -3.8 °C 4.9 °F /  -15.1 °C 1010.7 in /  34222.3 hPa West 9.0 mph /  14.5 km/h 9.0 mph /  14.5 km/h 27 % 0.0 in /  0 mm
19:25 18.9 °F /  -7.3 °C 6.7 °F /  -14.1 °C 1015.8 in /  34395 hPa NE 3.2 mph /  5.1 km/h 6.4 mph /  10.3 km/h 45 % 0.0 in /  0 mm
19:28 25.2 °F /  -3.8 °C 4.9 °F /  -15.1 °C 1011.7 in /  34256.2 hPa SW 8.7 mph /  14 km/h 8.7 mph /  14 km/h 27 % 0.0 in /  0 mm
19:33 25.1 °F /  -3.8 °C 4.8 °F /  -15.1 °C 1011.7 in /  34256.2 hPa SW 12.2 mph /  19.6 km/h 12.2 mph /  19.6 km/h 27 % 0.0 in /  0 mm
19:35 18.6 °F /  -7.4 °C 6.7 °F /  -14.1 °C 1014.8 in /  34361.1 hPa East 8.0 mph /  12.9 km/h 8.0 mph /  12.9 km/h 46 % 0.0 in /  0 mm
19:38 25.0 °F /  -3.9 °C 4.7 °F /  -15.2 °C 1011.7 in /  34256.2 hPa SW 14.8 mph /  23.8 km/h 14.8 mph /  23.8 km/h 27 % 0.0 in /  0 mm
19:43 24.9 °F /  -3.9 °C 5.1 °F /  -14.9 °C 1011.7 in /  34256.2 hPa West 13.7 mph /  22 km/h 13.7 mph /  22 km/h 28 % 0.0 in /  0 mm
19:48 24.8 °F /  -4 °C 5.1 °F /  -14.9 °C 1011.7 in /  34256.2 hPa SW 14.8 mph /  23.8 km/h 14.8 mph /  23.8 km/h 28 % 0.0 in /  0 mm
19:53 24.8 °F /  -4 °C 5.1 °F /  -14.9 °C 1011.7 in /  34256.2 hPa SSW 7.4 mph /  11.9 km/h 7.4 mph /  11.9 km/h 28 % 0.0 in /  0 mm
19:55 18.4 °F /  -7.6 °C 6.9 °F /  -13.9 °C 1015.8 in /  34395 hPa ENE 4.8 mph /  7.7 km/h 6.4 mph /  10.3 km/h 47 % 0.0 in /  0 mm
19:58 24.7 °F /  -4.1 °C 4.9 °F /  -15.1 °C 1011.7 in /  34256.2 hPa SW 18.5 mph /  29.8 km/h 18.5 mph /  29.8 km/h 28 % 0.0 in /  0 mm
20:03 24.6 °F /  -4.1 °C 4.9 °F /  -15.1 °C 1011.7 in /  34256.2 hPa WSW 11.1 mph /  17.9 km/h 11.1 mph /  17.9 km/h 28 % 0.0 in /  0 mm
20:05 18.3 °F /  -7.6 °C 7.1 °F /  -13.8 °C 1015.8 in /  34395 hPa NE 4.8 mph /  7.7 km/h 8.0 mph /  12.9 km/h 48 % 0.0 in /  0 mm
20:08 24.3 °F /  -4.3 °C 4.6 °F /  -15.2 °C 1011.7 in /  34256.2 hPa West 13.0 mph /  20.9 km/h 13.0 mph /  20.9 km/h 28 % 0.0 in /  0 mm
20:13 24.2 °F /  -4.3 °C 4.6 °F /  -15.2 °C 1011.7 in /  34256.2 hPa NNW 9.3 mph /  15 km/h 9.3 mph /  15 km/h 28 % 0.0 in /  0 mm
20:15 18.1 °F /  -7.7 °C 7.2 °F /  -13.8 °C 1015.8 in /  34395 hPa NE 4.8 mph /  7.7 km/h 4.8 mph /  7.7 km/h 49 % 0.0 in /  0 mm
20:23 23.9 °F /  -4.5 °C 4.3 °F /  -15.4 °C 1011.7 in /  34256.2 hPa West 9.3 mph /  15 km/h 9.3 mph /  15 km/h 28 % 0.0 in /  0 mm
20:25 18.0 °F /  -7.8 °C 7.1 °F /  -13.8 °C 1014.8 in /  34361.1 hPa NE 8.0 mph /  12.9 km/h 8.0 mph /  12.9 km/h 49 % 0.0 in /  0 mm
20:28 23.8 °F /  -4.6 °C 4.2 °F /  -15.4 °C 1011.7 in /  34256.2 hPa WSW 9.3 mph /  15 km/h 9.3 mph /  15 km/h 28 % 0.0 in /  0 mm
20:33 23.5 °F /  -4.7 °C 4.4 °F /  -15.3 °C 1011.7 in /  34256.2 hPa WSW 9.3 mph /  15 km/h 9.3 mph /  15 km/h 29 % 0.0 in /  0 mm
20:35 17.9 °F /  -7.8 °C 7.0 °F /  -13.9 °C 1015.8 in /  34395 hPa NE 3.2 mph /  5.1 km/h 8.0 mph /  12.9 km/h 49 % 0.0 in /  0 mm
20:38 23.4 °F /  -4.8 °C 4.3 °F /  -15.4 °C 1011.7 in /  34256.2 hPa WSW 9.3 mph /  15 km/h 9.3 mph /  15 km/h 29 % 0.0 in /  0 mm
20:43 23.3 °F /  -4.8 °C 4.3 °F /  -15.4 °C 1011.7 in /  34256.2 hPa West 5.6 mph /  9 km/h 5.6 mph /  9 km/h 29 % 0.0 in /  0 mm
20:45 17.7 °F /  -7.9 °C 7.2 °F /  -13.8 °C 1015.8 in /  34395 hPa NE 1.6 mph /  2.6 km/h 3.2 mph /  5.1 km/h 50 % 0.0 in /  0 mm
20:48 23.3 °F /  -4.8 °C 4.3 °F /  -15.4 °C 1011.7 in /  34256.2 hPa WSW 3.7 mph /  6 km/h 3.7 mph /  6 km/h 29 % 0.0 in /  0 mm
20:53 23.2 °F /  -4.9 °C 4.2 °F /  -15.4 °C 1011.7 in /  34256.2 hPa SW 3.7 mph /  6 km/h 3.7 mph /  6 km/h 29 % 0.0 in /  0 mm
20:55 17.5 °F /  -8.1 °C 6.9 °F /  -13.9 °C 1015.8 in /  34395 hPa Calm   1.6 mph /  2.6 km/h 50 % 0.0 in /  0 mm
20:58 23.2 °F /  -4.9 °C 4.2 °F /  -15.4 °C 1011.7 in /  34256.2 hPa WSW 2.6 mph /  4.2 km/h 2.6 mph /  4.2 km/h 29 % 0.0 in /  0 mm
21:03 23.1 °F /  -4.9 °C 4.1 °F /  -15.5 °C 1011.7 in /  34256.2 hPa SSW 7.4 mph /  11.9 km/h 7.4 mph /  11.9 km/h 29 % 0.0 in /  0 mm
21:05 17.4 °F /  -8.1 °C 6.9 °F /  -13.9 °C 1015.8 in /  34395 hPa NE 3.2 mph /  5.1 km/h 3.2 mph /  5.1 km/h 50 % 0.0 in /  0 mm
21:08 23.0 °F /  -5 °C 4.0 °F /  -15.6 °C 1011.7 in /  34256.2 hPa WNW 9.3 mph /  15 km/h 9.3 mph /  15 km/h 29 % 0.0 in /  0 mm
21:13 22.9 °F /  -5.1 °C 4.4 °F /  -15.3 °C 1012.8 in /  34293.4 hPa South 3.7 mph /  6 km/h 3.7 mph /  6 km/h 30 % 0.0 in /  0 mm
21:15 17.1 °F /  -8.3 °C 6.6 °F /  -14.1 °C 1015.8 in /  34395 hPa Calm   1.6 mph /  2.6 km/h 50 % 0.0 in /  0 mm
21:18 22.9 °F /  -5.1 °C 4.4 °F /  -15.3 °C 1012.8 in /  34293.4 hPa ESE 3.7 mph /  6 km/h 3.7 mph /  6 km/h 30 % 0.0 in /  0 mm
21:23 22.8 °F /  -5.1 °C 4.3 °F /  -15.4 °C 1012.8 in /  34293.4 hPa SW 7.4 mph /  11.9 km/h 7.4 mph /  11.9 km/h 30 % 0.0 in /  0 mm
21:25 16.9 °F /  -8.4 °C 7.0 °F /  -13.9 °C 1015.8 in /  34395 hPa Calm   3.2 mph /  5.1 km/h 52 % 0.0 in /  0 mm
21:28 22.7 °F /  -5.2 °C 4.2 °F /  -15.4 °C 1013.8 in /  34327.3 hPa West 9.3 mph /  15 km/h 9.3 mph /  15 km/h 30 % 0.0 in /  0 mm
21:33 22.5 °F /  -5.3 °C 4.1 °F /  -15.5 °C 1013.8 in /  34327.3 hPa WSW 7.4 mph /  11.9 km/h 7.4 mph /  11.9 km/h 30 % 0.0 in /  0 mm
21:35 16.7 °F /  -8.5 °C 6.8 °F /  -14 °C 1015.8 in /  34395 hPa WSW 1.6 mph /  2.6 km/h 3.2 mph /  5.1 km/h 52 % 0.0 in /  0 mm
21:38 22.4 °F /  -5.3 °C 3.9 °F /  -15.6 °C 1013.8 in /  34327.3 hPa North 7.4 mph /  11.9 km/h 7.4 mph /  11.9 km/h 30 % 0.0 in /  0 mm
21:43 22.4 °F /  -5.3 °C 3.9 °F /  -15.6 °C 1013.8 in /  34327.3 hPa WSW 3.7 mph /  6 km/h 3.7 mph /  6 km/h 30 % 0.0 in /  0 mm
21:45 16.8 °F /  -8.4 °C 6.6 °F /  -14.1 °C 1015.8 in /  34395 hPa WSW 1.6 mph /  2.6 km/h 3.2 mph /  5.1 km/h 51 % 0.0 in /  0 mm
21:48 22.3 °F /  -5.4 °C 4.3 °F /  -15.4 °C 1013.8 in /  34327.3 hPa West 3.7 mph /  6 km/h 3.7 mph /  6 km/h 31 % 0.0 in /  0 mm
21:53 22.2 °F /  -5.4 °C 4.3 °F /  -15.4 °C 1013.8 in /  34327.3 hPa WSW 5.6 mph /  9 km/h 5.6 mph /  9 km/h 31 % 0.0 in /  0 mm
21:55 16.9 °F /  -8.4 °C 6.7 °F /  -14.1 °C 1015.8 in /  34395 hPa WSW 1.6 mph /  2.6 km/h 3.2 mph /  5.1 km/h 51 % 0.0 in /  0 mm
21:58 22.1 °F /  -5.5 °C 4.2 °F /  -15.4 °C 1013.8 in /  34327.3 hPa SSE 7.4 mph /  11.9 km/h 7.4 mph /  11.9 km/h 31 % 0.0 in /  0 mm
22:05 16.9 °F /  -8.4 °C 7.0 °F /  -13.9 °C 1015.8 in /  34395 hPa Calm   4.8 mph /  7.7 km/h 52 % 0.0 in /  0 mm
22:08 21.9 °F /  -5.6 °C 4.0 °F /  -15.6 °C 1013.8 in /  34327.3 hPa SW 9.3 mph /  15 km/h 9.3 mph /  15 km/h 31 % 0.0 in /  0 mm
22:13 21.8 °F /  -5.7 °C 3.9 °F /  -15.6 °C 1013.8 in /  34327.3 hPa WSW 5.6 mph /  9 km/h 5.6 mph /  9 km/h 31 % 0.0 in /  0 mm
22:15 16.9 °F /  -8.4 °C 6.4 °F /  -14.2 °C 1015.8 in /  34395 hPa WSW 3.2 mph /  5.1 km/h 4.8 mph /  7.7 km/h 50 % 0.0 in /  0 mm
22:18 21.7 °F /  -5.7 °C 3.8 °F /  -15.7 °C 1013.8 in /  34327.3 hPa WSW 5.6 mph /  9 km/h 5.6 mph /  9 km/h 31 % 0.0 in /  0 mm
22:23 21.6 °F /  -5.8 °C 3.7 °F /  -15.7 °C 1013.8 in /  34327.3 hPa WSW 3.9 mph /  6.3 km/h 3.9 mph /  6.3 km/h 31 % 0.0 in /  0 mm
22:25 16.8 °F /  -8.4 °C 6.0 °F /  -14.4 °C 1015.8 in /  34395 hPa Calm   3.2 mph /  5.1 km/h 49 % 0.0 in /  0 mm
22:28 21.5 °F /  -5.8 °C 3.7 °F /  -15.7 °C 1014.8 in /  34361.1 hPa West 3.9 mph /  6.3 km/h 3.9 mph /  6.3 km/h 31 % 0.0 in /  0 mm
22:33 21.4 °F /  -5.9 °C 4.0 °F /  -15.6 °C 1014.8 in /  34361.1 hPa SW 10.3 mph /  16.6 km/h 10.3 mph /  16.6 km/h 32 % 0.0 in /  0 mm
22:35 16.8 °F /  -8.4 °C 6.0 °F /  -14.4 °C 1015.8 in /  34395 hPa SW 4.8 mph /  7.7 km/h 4.8 mph /  7.7 km/h 49 % 0.0 in /  0 mm
22:38 21.4 °F /  -5.9 °C 4.0 °F /  -15.6 °C 1014.8 in /  34361.1 hPa West 3.7 mph /  6 km/h 3.7 mph /  6 km/h 32 % 0.0 in /  0 mm
22:43 21.3 °F /  -5.9 °C 3.9 °F /  -15.6 °C 1014.8 in /  34361.1 hPa WSW 3.9 mph /  6.3 km/h 3.9 mph /  6.3 km/h 32 % 0.0 in /  0 mm
22:45 16.5 °F /  -8.6 °C 6.1 °F /  -14.4 °C 1015.8 in /  34395 hPa WSW 1.6 mph /  2.6 km/h 4.8 mph /  7.7 km/h 50 % 0.0 in /  0 mm
22:48 21.3 °F /  -5.9 °C 3.9 °F /  -15.6 °C 1014.8 in /  34361.1 hPa West 9.5 mph /  15.3 km/h 9.5 mph /  15.3 km/h 32 % 0.0 in /  0 mm
22:55 16.5 °F /  -8.6 °C 5.7 °F /  -14.6 °C 1015.8 in /  34395 hPa West 1.6 mph /  2.6 km/h 3.2 mph /  5.1 km/h 49 % 0.0 in /  0 mm
22:58 21.2 °F /  -6 °C 3.8 °F /  -15.7 °C 1014.8 in /  34361.1 hPa West 7.9 mph /  12.7 km/h 7.9 mph /  12.7 km/h 32 % 0.0 in /  0 mm
23:03 21.1 °F /  -6.1 °C 3.8 °F /  -15.7 °C 1014.8 in /  34361.1 hPa SW 3.7 mph /  6 km/h 3.7 mph /  6 km/h 32 % 0.0 in /  0 mm
23:05 16.6 °F /  -8.6 °C 5.6 °F /  -14.7 °C 1015.8 in /  34395 hPa West 4.8 mph /  7.7 km/h 4.8 mph /  7.7 km/h 48 % 0.0 in /  0 mm
23:08 21.1 °F /  -6.1 °C 3.8 °F /  -15.7 °C 1014.8 in /  34361.1 hPa WNW 3.7 mph /  6 km/h 3.7 mph /  6 km/h 32 % 0.0 in /  0 mm
23:13 21.1 °F /  -6.1 °C 3.8 °F /  -15.7 °C 1014.8 in /  34361.1 hPa WNW 3.7 mph /  6 km/h 3.7 mph /  6 km/h 32 % 0.0 in /  0 mm
23:15 16.2 °F /  -8.8 °C 5.2 °F /  -14.9 °C 1015.8 in /  34395 hPa SW 1.6 mph /  2.6 km/h 4.8 mph /  7.7 km/h 48 % 0.0 in /  0 mm
23:18 21.0 °F /  -6.1 °C 4.1 °F /  -15.5 °C 1014.8 in /  34361.1 hPa West 3.2 mph /  5.1 km/h 3.2 mph /  5.1 km/h 33 % 0.0 in /  0 mm
23:23 21.0 °F /  -6.1 °C 4.1 °F /  -15.5 °C 1014.8 in /  34361.1 hPa SW 3.7 mph /  6 km/h 3.7 mph /  6 km/h 33 % 0.0 in /  0 mm
23:24 21.0 °F /  -6.1 °C 4.1 °F /  -15.5 °C 1014.8 in /  34361.1 hPa SW 3.7 mph /  6 km/h 3.7 mph /  6 km/h 33 % 0.0 in /  0 mm
23:25 16.2 °F /  -8.8 °C 5.2 °F /  -14.9 °C 1015.8 in /  34395 hPa SSW 1.6 mph /  2.6 km/h 4.8 mph /  7.7 km/h 48 % 0.0 in /  0 mm
23:29 20.9 °F /  -6.2 °C 4.0 °F /  -15.6 °C 1014.8 in /  34361.1 hPa NW 5.6 mph /  9 km/h 5.6 mph /  9 km/h 33 % 0.0 in /  0 mm
23:34 20.8 °F /  -6.2 °C 3.9 °F /  -15.6 °C 1014.8 in /  34361.1 hPa NNW 3.9 mph /  6.3 km/h   33 % 0.0 in /  0 mm
23:35 16.4 °F /  -8.7 °C 5.3 °F /  -14.8 °C 1015.8 in /  34395 hPa SW 3.2 mph /  5.1 km/h 8.0 mph /  12.9 km/h 48 % 0.0 in /  0 mm
23:39 20.7 °F /  -6.3 °C 4.3 °F /  -15.4 °C 1014.8 in /  34361.1 hPa West 1.9 mph /  3.1 km/h   34 % 0.0 in /  0 mm
23:44 20.5 °F /  -6.4 °C 4.5 °F /  -15.3 °C 1015.8 in /  34395 hPa ESE 9.7 mph /  15.6 km/h 9.7 mph /  15.6 km/h 35 % 0.0 in /  0 mm
23:45 16.4 °F /  -8.7 °C 5.1 °F /  -14.9 °C 1015.8 in /  34395 hPa SW 1.6 mph /  2.6 km/h 4.8 mph /  7.7 km/h 47 % 0.0 in /  0 mm
23:49 19.9 °F /  -6.7 °C 5.5 °F /  -14.7 °C 1015.8 in /  34395 hPa East 7.4 mph /  11.9 km/h 7.4 mph /  11.9 km/h 39 % 0.0 in /  0 mm
23:54 19.7 °F /  -6.8 °C 5.7 °F /  -14.6 °C 1015.8 in /  34395 hPa NNE 5.0 mph /  8 km/h 5.0 mph /  8 km/h 40 % 0.0 in /  0 mm
23:55 16.4 °F /  -8.7 °C 5.1 °F /  -14.9 °C 1015.8 in /  34395 hPa WSW 4.8 mph /  7.7 km/h 4.8 mph /  7.7 km/h 47 % 0.0 in /  0 mm
23:59 19.5 °F /  -6.9 °C 5.9 °F /  -14.5 °C 1015.8 in /  34395 hPa NE 3.9 mph /  6.3 km/h 3.9 mph /  6.3 km/h 41 % 0.0 in /  0 mm
Meteo Sesrovires
Elogis d' Weather Underground - 2 mb

Guio original per  Jim McMurry - jmcmurry@mwt.net Adaptat per a la plantilla per  Wim van der Kuil - Leuven-Template.eu

Trobareu la nostra informacio del temps tambe a:

Weather Underground

AWEKAS